sensor_id;sensor_type;location;lat;lon;timestamp;pressure;altitude;pressure_sealevel;temperature;humidity
80248;BME280;69560;52.206;21.018;2023-11-18T00:00:43;100253.30;;;4.72;63.97
80248;BME280;69560;52.206;21.018;2023-11-18T00:03:30;100257.89;;;4.68;63.79
80248;BME280;69560;52.206;21.018;2023-11-18T00:05:57;100253.41;;;4.64;63.72
80248;BME280;69560;52.206;21.018;2023-11-18T00:08:23;100255.88;;;4.59;63.71
80248;BME280;69560;52.206;21.018;2023-11-18T00:10:50;100254.48;;;4.58;63.90
80248;BME280;69560;52.206;21.018;2023-11-18T00:13:16;100257.44;;;4.57;63.85
80248;BME280;69560;52.206;21.018;2023-11-18T00:15:43;100257.66;;;4.55;63.85
80248;BME280;69560;52.206;21.018;2023-11-18T00:18:12;100263.27;;;4.51;63.66
80248;BME280;69560;52.206;21.018;2023-11-18T00:20:38;100263.05;;;4.47;63.87
80248;BME280;69560;52.206;21.018;2023-11-18T00:23:05;100270.25;;;4.51;63.93
80248;BME280;69560;52.206;21.018;2023-11-18T00:25:31;100271.21;;;4.54;63.93
80248;BME280;69560;52.206;21.018;2023-11-18T00:28:01;100276.48;;;4.58;64.01
80248;BME280;69560;52.206;21.018;2023-11-18T00:30:28;100276.21;;;4.61;64.05
80248;BME280;69560;52.206;21.018;2023-11-18T00:32:54;100277.91;;;4.64;64.11
80248;BME280;69560;52.206;21.018;2023-11-18T00:35:21;100277.96;;;4.65;64.08
80248;BME280;69560;52.206;21.018;2023-11-18T00:37:47;100282.34;;;4.67;64.19
80248;BME280;69560;52.206;21.018;2023-11-18T00:40:14;100286.56;;;4.66;64.03
80248;BME280;69560;52.206;21.018;2023-11-18T00:42:44;100283.72;;;4.66;64.16
80248;BME280;69560;52.206;21.018;2023-11-18T00:45:11;100286.84;;;4.65;64.15
80248;BME280;69560;52.206;21.018;2023-11-18T00:47:41;100288.18;;;4.64;63.99
80248;BME280;69560;52.206;21.018;2023-11-18T00:50:07;100289.46;;;4.60;63.74
80248;BME280;69560;52.206;21.018;2023-11-18T00:52:34;100293.44;;;4.57;63.82
80248;BME280;69560;52.206;21.018;2023-11-18T00:55:01;100290.95;;;4.57;63.81
80248;BME280;69560;52.206;21.018;2023-11-18T00:57:27;100291.27;;;4.57;63.81
80248;BME280;69560;52.206;21.018;2023-11-18T00:59:54;100295.86;;;4.58;63.76
80248;BME280;69560;52.206;21.018;2023-11-18T01:02:24;100299.22;;;4.61;63.82
80248;BME280;69560;52.206;21.018;2023-11-18T01:04:50;100300.06;;;4.62;63.83
80248;BME280;69560;52.206;21.018;2023-11-18T01:07:17;100299.66;;;4.64;63.96
80248;BME280;69560;52.206;21.018;2023-11-18T01:09:43;100298.98;;;4.65;64.04
80248;BME280;69560;52.206;21.018;2023-11-18T01:12:10;100299.56;;;4.66;64.04
80248;BME280;69560;52.206;21.018;2023-11-18T01:14:37;100302.53;;;4.64;63.97
80248;BME280;69560;52.206;21.018;2023-11-18T01:17:05;100306.68;;;4.61;64.01
80248;BME280;69560;52.206;21.018;2023-11-18T01:19:32;100308.50;;;4.60;64.09
80248;BME280;69560;52.206;21.018;2023-11-18T01:22:00;100304.01;;;4.56;64.03
80248;BME280;69560;52.206;21.018;2023-11-18T01:24:26;100306.35;;;4.52;63.94
80248;BME280;69560;52.206;21.018;2023-11-18T01:26:53;100307.23;;;4.51;63.95
80248;BME280;69560;52.206;21.018;2023-11-18T01:29:19;100306.24;;;4.48;64.06
80248;BME280;69560;52.206;21.018;2023-11-18T01:31:48;100302.60;;;4.49;64.06
80248;BME280;69560;52.206;21.018;2023-11-18T01:34:15;100296.52;;;4.52;64.06
80248;BME280;69560;52.206;21.018;2023-11-18T01:36:43;100292.89;;;4.55;64.16
80248;BME280;69560;52.206;21.018;2023-11-18T01:39:10;100292.44;;;4.59;64.25
80248;BME280;69560;52.206;21.018;2023-11-18T01:41:36;100287.48;;;4.62;64.24
80248;BME280;69560;52.206;21.018;2023-11-18T01:44:03;100289.22;;;4.64;64.24
80248;BME280;69560;52.206;21.018;2023-11-18T01:46:30;100293.23;;;4.64;64.12
80248;BME280;69560;52.206;21.018;2023-11-18T01:48:57;100294.88;;;4.64;64.13
80248;BME280;69560;52.206;21.018;2023-11-18T01:51:25;100296.43;;;4.64;64.17
80248;BME280;69560;52.206;21.018;2023-11-18T01:53:52;100295.02;;;4.62;64.18
80248;BME280;69560;52.206;21.018;2023-11-18T01:56:19;100291.44;;;4.59;64.02
80248;BME280;69560;52.206;21.018;2023-11-18T01:58:50;100284.78;;;4.56;64.09
80248;BME280;69560;52.206;21.018;2023-11-18T02:01:16;100287.85;;;4.54;64.20
80248;BME280;69560;52.206;21.018;2023-11-18T02:03:44;100290.17;;;4.54;64.03
80248;BME280;69560;52.206;21.018;2023-11-18T02:06:10;100291.55;;;4.54;64.00
80248;BME280;69560;52.206;21.018;2023-11-18T02:08:37;100291.89;;;4.57;63.98
80248;BME280;69560;52.206;21.018;2023-11-18T02:11:16;100286.06;;;4.59;64.01
80248;BME280;69560;52.206;21.018;2023-11-18T02:13:47;100289.55;;;4.61;64.10
80248;BME280;69560;52.206;21.018;2023-11-18T02:16:15;100298.86;;;4.64;64.07
80248;BME280;69560;52.206;21.018;2023-11-18T02:18:43;100299.60;;;4.65;64.02
80248;BME280;69560;52.206;21.018;2023-11-18T02:21:10;100303.87;;;4.64;63.98
80248;BME280;69560;52.206;21.018;2023-11-18T02:23:38;100303.65;;;4.60;64.10
80248;BME280;69560;52.206;21.018;2023-11-18T02:26:05;100302.55;;;4.58;64.01
80248;BME280;69560;52.206;21.018;2023-11-18T02:28:32;100309.99;;;4.56;64.00
80248;BME280;69560;52.206;21.018;2023-11-18T02:31:06;100315.58;;;4.53;64.03
80248;BME280;69560;52.206;21.018;2023-11-18T02:39:12;100312.90;;;4.42;64.14
80248;BME280;69560;52.206;21.018;2023-11-18T02:41:46;100317.70;;;4.43;64.05
80248;BME280;69560;52.206;21.018;2023-11-18T02:44:15;100318.15;;;4.46;64.11
80248;BME280;69560;52.206;21.018;2023-11-18T02:46:44;100321.41;;;4.49;64.08
80248;BME280;69560;52.206;21.018;2023-11-18T02:49:10;100323.89;;;4.51;64.12
80248;BME280;69560;52.206;21.018;2023-11-18T02:51:37;100322.76;;;4.54;64.08
80248;BME280;69560;52.206;21.018;2023-11-18T02:54:06;100325.25;;;4.52;63.99
80248;BME280;69560;52.206;21.018;2023-11-18T02:56:33;100325.31;;;4.52;63.97
80248;BME280;69560;52.206;21.018;2023-11-18T02:58:59;100325.67;;;4.49;63.99
80248;BME280;69560;52.206;21.018;2023-11-18T03:01:27;100328.73;;;4.49;64.12
80248;BME280;69560;52.206;21.018;2023-11-18T03:03:56;100333.96;;;4.48;64.19
80248;BME280;69560;52.206;21.018;2023-11-18T03:06:22;100333.46;;;4.48;64.15
80248;BME280;69560;52.206;21.018;2023-11-18T03:08:49;100332.95;;;4.47;64.25
80248;BME280;69560;52.206;21.018;2023-11-18T03:11:16;100337.29;;;4.45;64.19
80248;BME280;69560;52.206;21.018;2023-11-18T03:13:43;100335.80;;;4.44;64.21
80248;BME280;69560;52.206;21.018;2023-11-18T03:16:10;100338.86;;;4.42;64.22
80248;BME280;69560;52.206;21.018;2023-11-18T03:18:39;100343.19;;;4.40;64.08
80248;BME280;69560;52.206;21.018;2023-11-18T03:21:15;100345.19;;;4.41;63.98
80248;BME280;69560;52.206;21.018;2023-11-18T03:23:42;100346.13;;;4.43;64.10
80248;BME280;69560;52.206;21.018;2023-11-18T03:26:09;100350.89;;;4.46;63.94
80248;BME280;69560;52.206;21.018;2023-11-18T03:28:39;100355.05;;;4.50;64.14
80248;BME280;69560;52.206;21.018;2023-11-18T03:31:06;100355.81;;;4.51;64.05
80248;BME280;69560;52.206;21.018;2023-11-18T03:33:33;100363.11;;;4.49;63.99
80248;BME280;69560;52.206;21.018;2023-11-18T03:36:00;100363.71;;;4.43;63.94
80248;BME280;69560;52.206;21.018;2023-11-18T03:38:26;100368.20;;;4.40;63.89
80248;BME280;69560;52.206;21.018;2023-11-18T03:40:54;100364.58;;;4.34;63.96
80248;BME280;69560;52.206;21.018;2023-11-18T03:43:23;100361.19;;;4.27;63.74
80248;BME280;69560;52.206;21.018;2023-11-18T03:45:49;100364.83;;;4.23;63.95
80248;BME280;69560;52.206;21.018;2023-11-18T03:48:15;100367.13;;;4.24;64.10
80248;BME280;69560;52.206;21.018;2023-11-18T03:50:44;100373.08;;;4.26;64.13
80248;BME280;69560;52.206;21.018;2023-11-18T03:53:11;100377.67;;;4.31;64.16
80248;BME280;69560;52.206;21.018;2023-11-18T03:55:37;100377.38;;;4.36;64.34
80248;BME280;69560;52.206;21.018;2023-11-18T03:58:04;100380.80;;;4.39;64.38
80248;BME280;69560;52.206;21.018;2023-11-18T04:00:30;100383.35;;;4.42;64.33
80248;BME280;69560;52.206;21.018;2023-11-18T04:02:58;100384.23;;;4.43;64.16
80248;BME280;69560;52.206;21.018;2023-11-18T04:05:28;100384.07;;;4.42;64.20
80248;BME280;69560;52.206;21.018;2023-11-18T04:07:58;100384.11;;;4.41;64.20
80248;BME280;69560;52.206;21.018;2023-11-18T04:10:24;100386.16;;;4.40;64.22
80248;BME280;69560;52.206;21.018;2023-11-18T04:12:51;100388.45;;;4.37;64.07
80248;BME280;69560;52.206;21.018;2023-11-18T04:15:17;100388.88;;;4.32;64.22
80248;BME280;69560;52.206;21.018;2023-11-18T04:17:44;100390.40;;;4.31;64.26
80248;BME280;69560;52.206;21.018;2023-11-18T04:20:11;100391.42;;;4.30;64.33
80248;BME280;69560;52.206;21.018;2023-11-18T04:22:39;100391.58;;;4.28;64.48
80248;BME280;69560;52.206;21.018;2023-11-18T04:25:11;100392.91;;;4.30;64.40
80248;BME280;69560;52.206;21.018;2023-11-18T04:27:38;100397.02;;;4.30;64.18
80248;BME280;69560;52.206;21.018;2023-11-18T04:30:06;100396.89;;;4.34;64.26
80248;BME280;69560;52.206;21.018;2023-11-18T04:32:32;100401.55;;;4.38;64.32
80248;BME280;69560;52.206;21.018;2023-11-18T04:34:59;100399.96;;;4.41;64.34
80248;BME280;69560;52.206;21.018;2023-11-18T04:37:26;100405.30;;;4.41;64.28
80248;BME280;69560;52.206;21.018;2023-11-18T04:39:53;100405.45;;;4.38;64.21
80248;BME280;69560;52.206;21.018;2023-11-18T04:42:23;100406.20;;;4.37;64.16
80248;BME280;69560;52.206;21.018;2023-11-18T04:44:50;100409.36;;;4.36;64.17
80248;BME280;69560;52.206;21.018;2023-11-18T04:47:16;100409.34;;;4.33;64.16
80248;BME280;69560;52.206;21.018;2023-11-18T04:49:44;100409.10;;;4.30;64.15
80248;BME280;69560;52.206;21.018;2023-11-18T04:52:11;100410.10;;;4.25;64.12
80248;BME280;69560;52.206;21.018;2023-11-18T04:54:37;100413.33;;;4.21;64.08
80248;BME280;69560;52.206;21.018;2023-11-18T04:57:04;100413.98;;;4.19;63.99
80248;BME280;69560;52.206;21.018;2023-11-18T04:59:30;100417.20;;;4.19;64.16
80248;BME280;69560;52.206;21.018;2023-11-18T05:01:57;100416.70;;;4.19;63.96
80248;BME280;69560;52.206;21.018;2023-11-18T05:04:23;100419.96;;;4.20;64.13
80248;BME280;69560;52.206;21.018;2023-11-18T05:06:50;100417.30;;;4.19;64.40
80248;BME280;69560;52.206;21.018;2023-11-18T05:09:17;100426.14;;;4.22;64.29
80248;BME280;69560;52.206;21.018;2023-11-18T05:11:44;100424.60;;;4.23;64.32
80248;BME280;69560;52.206;21.018;2023-11-18T05:14:11;100428.45;;;4.24;64.38
80248;BME280;69560;52.206;21.018;2023-11-18T05:16:38;100428.96;;;4.26;64.41
80248;BME280;69560;52.206;21.018;2023-11-18T05:19:05;100428.86;;;4.25;64.31
80248;BME280;69560;52.206;21.018;2023-11-18T05:21:31;100432.45;;;4.25;64.36
80248;BME280;69560;52.206;21.018;2023-11-18T05:23:58;100432.30;;;4.22;64.19
80248;BME280;69560;52.206;21.018;2023-11-18T05:26:24;100431.48;;;4.19;64.13
80248;BME280;69560;52.206;21.018;2023-11-18T05:28:51;100437.54;;;4.18;64.24
80248;BME280;69560;52.206;21.018;2023-11-18T05:31:17;100437.98;;;4.19;64.27
80248;BME280;69560;52.206;21.018;2023-11-18T05:33:45;100442.10;;;4.21;64.22
80248;BME280;69560;52.206;21.018;2023-11-18T05:36:17;100438.61;;;4.24;64.41
80248;BME280;69560;52.206;21.018;2023-11-18T05:38:55;100449.18;;;4.27;64.39
80248;BME280;69560;52.206;21.018;2023-11-18T05:41:22;100454.09;;;4.28;64.46
80248;BME280;69560;52.206;21.018;2023-11-18T05:43:56;100457.54;;;4.28;64.28
80248;BME280;69560;52.206;21.018;2023-11-18T05:46:24;100466.30;;;4.24;64.14
80248;BME280;69560;52.206;21.018;2023-11-18T05:48:52;100474.81;;;4.18;64.21
80248;BME280;69560;52.206;21.018;2023-11-18T05:51:23;100474.63;;;4.18;64.30
80248;BME280;69560;52.206;21.018;2023-11-18T05:53:52;100478.83;;;4.16;64.34
80248;BME280;69560;52.206;21.018;2023-11-18T05:56:19;100479.89;;;4.14;64.23
80248;BME280;69560;52.206;21.018;2023-11-18T05:58:48;100489.55;;;4.12;64.30
80248;BME280;69560;52.206;21.018;2023-11-18T06:01:16;100497.23;;;4.08;64.18
80248;BME280;69560;52.206;21.018;2023-11-18T06:03:43;100501.01;;;4.05;64.25
80248;BME280;69560;52.206;21.018;2023-11-18T06:06:12;100505.95;;;4.09;64.40
80248;BME280;69560;52.206;21.018;2023-11-18T06:08:39;100503.57;;;4.09;64.22
80248;BME280;69560;52.206;21.018;2023-11-18T06:11:14;100502.84;;;4.10;64.24
80248;BME280;69560;52.206;21.018;2023-11-18T06:13:45;100502.58;;;4.10;64.14
80248;BME280;69560;52.206;21.018;2023-11-18T06:16:16;100505.56;;;4.09;64.11
80248;BME280;69560;52.206;21.018;2023-11-18T06:18:45;100507.95;;;4.06;64.17
80248;BME280;69560;52.206;21.018;2023-11-18T06:21:15;100509.85;;;4.03;64.10
80248;BME280;69560;52.206;21.018;2023-11-18T06:23:42;100514.63;;;3.97;64.08
80248;BME280;69560;52.206;21.018;2023-11-18T06:26:08;100514.42;;;3.93;64.11
80248;BME280;69560;52.206;21.018;2023-11-18T06:28:39;100523.20;;;3.88;64.25
80248;BME280;69560;52.206;21.018;2023-11-18T06:31:06;100529.95;;;3.85;64.22
80248;BME280;69560;52.206;21.018;2023-11-18T06:38:46;100546.11;;;3.80;64.40
80248;BME280;69560;52.206;21.018;2023-11-18T06:41:13;100548.11;;;3.87;64.57
80248;BME280;69560;52.206;21.018;2023-11-18T06:43:43;100546.64;;;3.93;64.62
80248;BME280;69560;52.206;21.018;2023-11-18T06:46:26;100543.29;;;4.01;64.77
80248;BME280;69560;52.206;21.018;2023-11-18T06:48:55;100543.34;;;4.05;64.69
80248;BME280;69560;52.206;21.018;2023-11-18T06:51:25;100548.52;;;4.10;64.85
80248;BME280;69560;52.206;21.018;2023-11-18T06:53:52;100553.38;;;4.13;64.74
80248;BME280;69560;52.206;21.018;2023-11-18T06:56:21;100555.95;;;4.17;64.95
80248;BME280;69560;52.206;21.018;2023-11-18T06:58:48;100561.45;;;4.20;64.97
80248;BME280;69560;52.206;21.018;2023-11-18T07:01:14;100568.20;;;4.22;64.77
80248;BME280;69560;52.206;21.018;2023-11-18T07:03:45;100573.09;;;4.23;64.70
80248;BME280;69560;52.206;21.018;2023-11-18T07:06:11;100575.91;;;4.26;64.86
80248;BME280;69560;52.206;21.018;2023-11-18T07:08:40;100576.46;;;4.26;64.63
80248;BME280;69560;52.206;21.018;2023-11-18T07:11:06;100582.69;;;4.26;64.52
80248;BME280;69560;52.206;21.018;2023-11-18T07:13:33;100584.55;;;4.31;64.51
80248;BME280;69560;52.206;21.018;2023-11-18T07:16:04;100588.16;;;4.35;64.53
80248;BME280;69560;52.206;21.018;2023-11-18T07:18:31;100588.60;;;4.39;64.48
80248;BME280;69560;52.206;21.018;2023-11-18T07:21:02;100596.98;;;4.44;64.48
80248;BME280;69560;52.206;21.018;2023-11-18T07:23:31;100601.16;;;4.48;64.34
80248;BME280;69560;52.206;21.018;2023-11-18T07:25:59;100601.81;;;4.48;64.36
80248;BME280;69560;52.206;21.018;2023-11-18T07:28:25;100600.55;;;4.48;64.29
80248;BME280;69560;52.206;21.018;2023-11-18T07:30:53;100597.27;;;4.47;64.33
80248;BME280;69560;52.206;21.018;2023-11-18T07:33:20;100598.73;;;4.49;64.30
80248;BME280;69560;52.206;21.018;2023-11-18T07:35:48;100605.65;;;4.45;64.03
80248;BME280;69560;52.206;21.018;2023-11-18T07:38:15;100608.63;;;4.38;63.93
80248;BME280;69560;52.206;21.018;2023-11-18T07:40:42;100609.61;;;4.36;64.07
80248;BME280;69560;52.206;21.018;2023-11-18T07:43:12;100607.30;;;4.38;64.22
80248;BME280;69560;52.206;21.018;2023-11-18T07:45:39;100610.36;;;4.41;64.08
80248;BME280;69560;52.206;21.018;2023-11-18T07:48:08;100612.23;;;4.46;64.01
80248;BME280;69560;52.206;21.018;2023-11-18T07:50:40;100612.18;;;4.52;64.10
80248;BME280;69560;52.206;21.018;2023-11-18T07:53:07;100607.29;;;4.56;63.97
80248;BME280;69560;52.206;21.018;2023-11-18T07:55:34;100606.97;;;4.58;63.95
80248;BME280;69560;52.206;21.018;2023-11-18T07:58:01;100616.23;;;4.59;63.82
80248;BME280;69560;52.206;21.018;2023-11-18T08:00:30;100624.39;;;4.59;63.94
80248;BME280;69560;52.206;21.018;2023-11-18T08:02:57;100630.13;;;4.61;64.09
80248;BME280;69560;52.206;21.018;2023-11-18T08:05:28;100634.23;;;4.61;64.10
80248;BME280;69560;52.206;21.018;2023-11-18T08:07:54;100639.19;;;4.63;63.93
80248;BME280;69560;52.206;21.018;2023-11-18T08:10:21;100638.72;;;4.60;63.84
80248;BME280;69560;52.206;21.018;2023-11-18T08:12:48;100642.13;;;4.58;63.83
80248;BME280;69560;52.206;21.018;2023-11-18T08:15:14;100649.40;;;4.53;63.65
80248;BME280;69560;52.206;21.018;2023-11-18T08:17:41;100653.19;;;4.48;63.53
80248;BME280;69560;52.206;21.018;2023-11-18T08:20:08;100655.44;;;4.46;63.68
80248;BME280;69560;52.206;21.018;2023-11-18T08:22:41;100662.33;;;4.47;63.77
80248;BME280;69560;52.206;21.018;2023-11-18T08:25:11;100667.26;;;4.51;63.73
80248;BME280;69560;52.206;21.018;2023-11-18T08:27:40;100663.88;;;4.54;63.79
80248;BME280;69560;52.206;21.018;2023-11-18T08:30:08;100668.66;;;4.56;63.88
80248;BME280;69560;52.206;21.018;2023-11-18T08:32:38;100669.94;;;4.58;63.92
80248;BME280;69560;52.206;21.018;2023-11-18T08:35:06;100675.20;;;4.58;63.90
80248;BME280;69560;52.206;21.018;2023-11-18T08:37:36;100676.04;;;4.59;63.85
80248;BME280;69560;52.206;21.018;2023-11-18T08:40:04;100678.33;;;4.58;63.79
80248;BME280;69560;52.206;21.018;2023-11-18T08:42:34;100681.74;;;4.60;63.92
80248;BME280;69560;52.206;21.018;2023-11-18T08:45:01;100690.97;;;4.62;64.00
80248;BME280;69560;52.206;21.018;2023-11-18T08:47:27;100693.55;;;4.62;63.92
80248;BME280;69560;52.206;21.018;2023-11-18T08:49:55;100690.84;;;4.63;63.83
80248;BME280;69560;52.206;21.018;2023-11-18T08:52:21;100693.37;;;4.65;63.70
80248;BME280;69560;52.206;21.018;2023-11-18T08:54:48;100696.90;;;4.68;63.78
80248;BME280;69560;52.206;21.018;2023-11-18T08:57:48;100697.61;;;4.74;63.78
80248;BME280;69560;52.206;21.018;2023-11-18T09:00:28;100692.52;;;4.79;63.92
80248;BME280;69560;52.206;21.018;2023-11-18T09:03:14;100692.73;;;4.87;63.86
80248;BME280;69560;52.206;21.018;2023-11-18T09:05:58;100697.05;;;4.91;63.75
80248;BME280;69560;52.206;21.018;2023-11-18T09:08:27;100697.21;;;4.93;63.62
80248;BME280;69560;52.206;21.018;2023-11-18T09:10:56;100700.77;;;4.90;63.47
80248;BME280;69560;52.206;21.018;2023-11-18T09:13:25;100697.98;;;4.91;63.45
80248;BME280;69560;52.206;21.018;2023-11-18T09:16:00;100698.58;;;4.92;63.49
80248;BME280;69560;52.206;21.018;2023-11-18T09:18:28;100697.23;;;4.89;63.41
80248;BME280;69560;52.206;21.018;2023-11-18T09:20:56;100702.68;;;4.86;63.25
80248;BME280;69560;52.206;21.018;2023-11-18T09:23:29;100707.23;;;4.83;63.15
80248;BME280;69560;52.206;21.018;2023-11-18T09:25:56;100709.93;;;4.77;63.10
80248;BME280;69560;52.206;21.018;2023-11-18T09:28:26;100712.38;;;4.71;62.85
80248;BME280;69560;52.206;21.018;2023-11-18T09:30:56;100716.52;;;4.70;63.01
80248;BME280;69560;52.206;21.018;2023-11-18T09:33:31;100714.52;;;4.71;63.31
80248;BME280;69560;52.206;21.018;2023-11-18T09:36:04;100717.80;;;4.77;63.39
80248;BME280;69560;52.206;21.018;2023-11-18T09:38:36;100717.45;;;4.82;63.40
80248;BME280;69560;52.206;21.018;2023-11-18T09:41:04;100724.48;;;4.86;63.37
80248;BME280;69560;52.206;21.018;2023-11-18T09:43:38;100724.71;;;4.87;63.22
80248;BME280;69560;52.206;21.018;2023-11-18T09:51:34;100716.56;;;4.86;63.32
80248;BME280;69560;52.206;21.018;2023-11-18T09:54:48;100717.95;;;4.87;63.28
80248;BME280;69560;52.206;21.018;2023-11-18T09:57:21;100720.38;;;4.87;63.31
80248;BME280;69560;52.206;21.018;2023-11-18T10:00:13;100717.77;;;4.90;63.37
80248;BME280;69560;52.206;21.018;2023-11-18T10:02:53;100721.36;;;4.94;63.36
80248;BME280;69560;52.206;21.018;2023-11-18T10:05:22;100722.42;;;4.96;63.09
80248;BME280;69560;52.206;21.018;2023-11-18T10:07:53;100720.27;;;4.99;63.23
80248;BME280;69560;52.206;21.018;2023-11-18T10:10:20;100719.06;;;5.02;63.19
80248;BME280;69560;52.206;21.018;2023-11-18T10:12:47;100720.36;;;5.09;63.32
80248;BME280;69560;52.206;21.018;2023-11-18T10:15:24;100719.24;;;5.15;63.06
80248;BME280;69560;52.206;21.018;2023-11-18T10:17:52;100722.09;;;5.18;63.08
80248;BME280;69560;52.206;21.018;2023-11-18T10:20:48;100728.34;;;5.27;63.28
80248;BME280;69560;52.206;21.018;2023-11-18T10:23:18;100736.02;;;5.34;63.16
80248;BME280;69560;52.206;21.018;2023-11-18T10:25:55;100742.61;;;5.37;63.06
80248;BME280;69560;52.206;21.018;2023-11-18T10:30:56;100738.16;;;5.41;62.88
80248;BME280;69560;52.206;21.018;2023-11-18T10:33:39;100739.13;;;5.36;62.72
80248;BME280;69560;52.206;21.018;2023-11-18T10:36:19;100738.02;;;5.33;62.66
80248;BME280;69560;52.206;21.018;2023-11-18T10:38:50;100732.83;;;5.27;62.62
80248;BME280;69560;52.206;21.018;2023-11-18T10:41:18;100727.54;;;5.24;62.54
80248;BME280;69560;52.206;21.018;2023-11-18T10:43:45;100725.81;;;5.21;62.42
80248;BME280;69560;52.206;21.018;2023-11-18T10:46:16;100726.27;;;5.19;62.54
80248;BME280;69560;52.206;21.018;2023-11-18T10:48:51;100726.52;;;5.12;62.35
80248;BME280;69560;52.206;21.018;2023-11-18T10:51:20;100729.39;;;5.10;62.36
80248;BME280;69560;52.206;21.018;2023-11-18T10:53:51;100731.46;;;5.11;62.47
80248;BME280;69560;52.206;21.018;2023-11-18T10:56:30;100737.20;;;5.16;62.74
80248;BME280;69560;52.206;21.018;2023-11-18T10:59:04;100741.30;;;5.22;62.86
80248;BME280;69560;52.206;21.018;2023-11-18T11:01:36;100741.98;;;5.28;62.74
80248;BME280;69560;52.206;21.018;2023-11-18T11:04:10;100738.95;;;5.33;62.70
80248;BME280;69560;52.206;21.018;2023-11-18T11:06:41;100735.16;;;5.29;62.35
80248;BME280;69560;52.206;21.018;2023-11-18T11:09:08;100733.27;;;5.27;62.45
80248;BME280;69560;52.206;21.018;2023-11-18T11:11:49;100736.71;;;5.28;62.59
80248;BME280;69560;52.206;21.018;2023-11-18T11:14:16;100742.63;;;5.29;62.57
80248;BME280;69560;52.206;21.018;2023-11-18T11:16:59;100747.84;;;5.29;62.47
80248;BME280;69560;52.206;21.018;2023-11-18T11:19:50;100749.92;;;5.30;62.64
80248;BME280;69560;52.206;21.018;2023-11-18T11:22:24;100749.55;;;5.27;62.36
80248;BME280;69560;52.206;21.018;2023-11-18T11:25:07;100754.70;;;5.26;62.40
80248;BME280;69560;52.206;21.018;2023-11-18T11:30:23;100755.52;;;5.22;62.27
80248;BME280;69560;52.206;21.018;2023-11-18T11:33:14;100758.44;;;5.19;62.23
80248;BME280;69560;52.206;21.018;2023-11-18T11:35:49;100760.43;;;5.20;62.37
80248;BME280;69560;52.206;21.018;2023-11-18T11:38:23;100764.98;;;5.26;62.47
80248;BME280;69560;52.206;21.018;2023-11-18T11:40:51;100769.10;;;5.31;62.41
80248;BME280;69560;52.206;21.018;2023-11-18T11:43:20;100773.59;;;5.34;62.45
80248;BME280;69560;52.206;21.018;2023-11-18T11:45:51;100774.39;;;5.36;62.49
80248;BME280;69560;52.206;21.018;2023-11-18T11:48:21;100776.28;;;5.39;62.44
80248;BME280;69560;52.206;21.018;2023-11-18T11:51:19;100781.01;;;5.38;62.28
80248;BME280;69560;52.206;21.018;2023-11-18T11:53:52;100784.77;;;5.33;62.24
80248;BME280;69560;52.206;21.018;2023-11-18T11:56:37;100789.04;;;5.32;62.21
80248;BME280;69560;52.206;21.018;2023-11-18T11:59:04;100793.82;;;5.28;62.16
80248;BME280;69560;52.206;21.018;2023-11-18T12:01:37;100792.94;;;5.26;62.21
80248;BME280;69560;52.206;21.018;2023-11-18T12:04:05;100794.06;;;5.25;62.31
80248;BME280;69560;52.206;21.018;2023-11-18T12:06:42;100796.78;;;5.22;62.22
80248;BME280;69560;52.206;21.018;2023-11-18T12:09:10;100796.19;;;5.17;62.12
80248;BME280;69560;52.206;21.018;2023-11-18T12:11:38;100796.83;;;5.15;62.29
80248;BME280;69560;52.206;21.018;2023-11-18T12:14:12;100794.81;;;5.16;62.39
80248;BME280;69560;52.206;21.018;2023-11-18T12:17:05;100801.00;;;5.15;62.13
80248;BME280;69560;52.206;21.018;2023-11-18T12:19:38;100804.44;;;5.15;62.12
80248;BME280;69560;52.206;21.018;2023-11-18T12:22:23;100805.34;;;5.18;62.28
80248;BME280;69560;52.206;21.018;2023-11-18T12:41:37;100833.15;;;5.20;62.41
80248;BME280;69560;52.206;21.018;2023-11-18T12:46:50;100832.23;;;5.20;62.26
80248;BME280;69560;52.206;21.018;2023-11-18T12:49:20;100832.73;;;5.19;62.31
80248;BME280;69560;52.206;21.018;2023-11-18T12:51:51;100839.61;;;5.19;62.38
80248;BME280;69560;52.206;21.018;2023-11-18T12:54:37;100846.16;;;5.21;62.44
80248;BME280;69560;52.206;21.018;2023-11-18T12:57:04;100854.63;;;5.23;62.34
80248;BME280;69560;52.206;21.018;2023-11-18T12:59:34;100858.36;;;5.25;62.35
80248;BME280;69560;52.206;21.018;2023-11-18T13:02:00;100862.67;;;5.28;62.27
80248;BME280;69560;52.206;21.018;2023-11-18T13:04:30;100864.50;;;5.28;62.02
80248;BME280;69560;52.206;21.018;2023-11-18T13:06:58;100869.34;;;5.24;61.82
80248;BME280;69560;52.206;21.018;2023-11-18T13:09:26;100873.44;;;5.16;61.61
80248;BME280;69560;52.206;21.018;2023-11-18T13:11:59;100879.87;;;5.09;61.86
80248;BME280;69560;52.206;21.018;2023-11-18T13:14:33;100879.25;;;5.03;61.72
80248;BME280;69560;52.206;21.018;2023-11-18T13:17:03;100883.08;;;4.98;61.85
80248;BME280;69560;52.206;21.018;2023-11-18T13:19:33;100889.19;;;4.94;61.92
80248;BME280;69560;52.206;21.018;2023-11-18T13:22:05;100889.52;;;4.86;61.77
80248;BME280;69560;52.206;21.018;2023-11-18T13:24:41;100892.74;;;4.82;61.89
80248;BME280;69560;52.206;21.018;2023-11-18T13:27:13;100899.67;;;4.78;62.00
80248;BME280;69560;52.206;21.018;2023-11-18T13:29:44;100898.05;;;4.72;62.04
80248;BME280;69560;52.206;21.018;2023-11-18T13:32:12;100901.52;;;4.67;61.99
80248;BME280;69560;52.206;21.018;2023-11-18T13:34:39;100903.11;;;4.63;62.08
80248;BME280;69560;52.206;21.018;2023-11-18T13:37:08;100910.02;;;4.60;62.16
80248;BME280;69560;52.206;21.018;2023-11-18T13:39:55;100910.33;;;4.63;62.21
80248;BME280;69560;52.206;21.018;2023-11-18T13:42:26;100911.30;;;4.68;62.26
80248;BME280;69560;52.206;21.018;2023-11-18T13:45:02;100906.62;;;4.68;62.44